Terminal Aerodrome Forecast
Issued by NWS Tallahassee, FL

Home | Current Version | Previous Version | Text Only | Print | Product List | Glossary On
Versions: 1 2 3 4 5 6 7 8 9 10 11 12 13 14 15 16 17
000
FTUS42 KTAE 042327
TAFTLH
TAF
KTLH 042327Z 0500/0524 21005KT P6SM VCTS SCT060CB BKN120 BKN250
     FM050100 00000KT P6SM BKN250
     FM051400 01004KT P6SM SCT040
     FM051800 09006KT P6SM VCTS SCT040CB=

USA.gov is the U.S. government's official web portal to all federal, state and local government web resources and services.